createdAt,value
2016-11-04T00:00:12.473Z,0
2016-11-04T00:01:12.466Z,0
2016-11-04T00:02:12.152Z,0
2016-11-04T00:03:12.432Z,0
2016-11-04T00:04:12.417Z,0
2016-11-04T00:05:12.400Z,0
2016-11-04T00:06:12.375Z,0
2016-11-04T00:07:12.363Z,0
2016-11-04T00:08:12.347Z,0
2016-11-04T00:09:12.325Z,0
2016-11-04T00:10:12.318Z,0
2016-11-04T00:11:12.305Z,0
2016-11-04T00:12:12.280Z,0
2016-11-04T00:13:12.262Z,0
2016-11-04T00:14:12.252Z,0
2016-11-04T00:15:12.248Z,0
2016-11-04T00:16:12.223Z,0
2016-11-04T00:17:12.203Z,0
2016-11-04T00:18:12.186Z,0
2016-11-04T00:19:12.166Z,0
2016-11-04T00:20:12.150Z,0
2016-11-04T00:21:12.135Z,0
2016-11-04T00:22:12.116Z,0
2016-11-04T00:23:12.112Z,0
2016-11-04T00:24:12.089Z,0
2016-11-04T00:25:12.084Z,0
2016-11-04T00:26:12.071Z,0
2016-11-04T00:27:12.043Z,0
2016-11-04T00:28:12.082Z,0
2016-11-04T00:29:12.005Z,0
2016-11-04T00:30:11.990Z,0
2016-11-04T00:31:11.969Z,0
2016-11-04T00:32:11.963Z,0
2016-11-04T00:33:11.952Z,0
2016-11-04T00:34:11.939Z,0
2016-11-04T00:35:11.908Z,0
2016-11-04T00:36:11.891Z,0
2016-11-04T00:37:11.877Z,0
2016-11-04T00:38:11.863Z,0
2016-11-04T00:39:11.841Z,0
2016-11-04T00:40:11.864Z,0
2016-11-04T00:41:11.811Z,0
2016-11-04T00:42:11.491Z,0
2016-11-04T00:43:11.815Z,0
2016-11-04T00:44:11.851Z,0
2016-11-04T00:45:11.747Z,0
2016-11-04T00:46:11.762Z,0
2016-11-04T00:47:11.716Z,0
2016-11-04T00:48:11.730Z,0
2016-11-04T00:49:11.683Z,0
2016-11-04T00:50:11.674Z,0
2016-11-04T00:51:11.655Z,0
2016-11-04T00:52:11.636Z,0
2016-11-04T00:53:11.616Z,0
2016-11-04T00:54:11.611Z,0
2016-11-04T00:55:11.584Z,0
2016-11-04T00:56:11.575Z,0
2016-11-04T00:57:11.550Z,0
2016-11-04T00:58:11.540Z,0
2016-11-04T00:59:11.531Z,0
2016-11-04T01:00:11.215Z,0
2016-11-04T01:01:11.525Z,0
2016-11-04T01:02:11.479Z,0
2016-11-04T01:03:11.463Z,0
2016-11-04T01:04:11.442Z,0
2016-11-04T01:05:11.428Z,0
2016-11-04T01:06:11.417Z,0
2016-11-04T01:07:11.395Z,0
2016-11-04T01:08:11.376Z,0
2016-11-04T01:09:11.361Z,0
2016-11-04T01:10:11.344Z,0
2016-11-04T01:11:11.329Z,0
2016-11-04T01:12:11.313Z,0
2016-11-04T01:13:11.300Z,0
2016-11-04T01:14:11.285Z,0
2016-11-04T01:15:11.270Z,0
2016-11-04T01:16:11.265Z,0
2016-11-04T01:17:11.231Z,0
2016-11-04T01:18:11.216Z,0
2016-11-04T01:19:11.199Z,0
2016-11-04T01:20:11.187Z,0
2016-11-04T01:21:11.165Z,0
2016-11-04T01:22:11.149Z,0
2016-11-04T01:23:11.138Z,0
2016-11-04T01:24:11.127Z,0
2016-11-04T01:25:11.109Z,0
2016-11-04T01:26:11.090Z,0
2016-11-04T01:27:11.074Z,0
2016-11-04T01:28:11.054Z,0
2016-11-04T01:29:11.038Z,0
2016-11-04T01:30:11.022Z,0
2016-11-04T01:31:11.004Z,0
2016-11-04T01:32:11.038Z,0
2016-11-04T01:33:10.972Z,0
2016-11-04T01:34:10.961Z,0
2016-11-04T01:35:10.941Z,0
2016-11-04T01:36:10.927Z,0
2016-11-04T01:37:10.907Z,0
2016-11-04T01:38:10.894Z,0
2016-11-04T01:39:10.885Z,0
2016-11-04T01:40:10.859Z,0
2016-11-04T01:41:10.840Z,0
2016-11-04T01:42:10.823Z,0
2016-11-04T01:43:10.844Z,0
2016-11-04T01:44:10.799Z,0
2016-11-04T01:45:10.769Z,0
2016-11-04T01:46:10.758Z,0
2016-11-04T01:47:10.743Z,0
2016-11-04T01:48:10.730Z,0
2016-11-04T01:49:10.710Z,0
2016-11-04T01:50:10.701Z,0
2016-11-04T01:51:10.678Z,0
2016-11-04T01:52:10.660Z,0
2016-11-04T01:53:10.647Z,0
2016-11-04T01:54:10.630Z,0
2016-11-04T01:55:10.617Z,0
2016-11-04T01:56:10.600Z,0
2016-11-04T01:57:10.588Z,0
2016-11-04T01:58:10.565Z,0
2016-11-04T01:59:10.558Z,0
2016-11-04T02:00:10.533Z,0
2016-11-04T02:01:10.518Z,0
2016-11-04T02:02:10.493Z,0
2016-11-04T02:03:10.483Z,0
2016-11-04T02:04:10.470Z,0
2016-11-04T02:05:10.449Z,0
2016-11-04T02:06:10.444Z,0
2016-11-04T02:07:10.415Z,0
2016-11-04T02:08:54.221Z,0
2016-11-04T02:09:10.389Z,0
2016-11-04T02:10:10.374Z,0
2016-11-04T02:11:10.355Z,0
2016-11-04T02:12:10.334Z,0
2016-11-04T02:13:10.319Z,0
2016-11-04T02:14:10.310Z,0
2016-11-04T02:19:19.735Z,0
2016-11-04T02:20:19.711Z,0
2016-11-04T02:21:19.704Z,0
2016-11-04T02:22:19.685Z,0
2016-11-04T02:23:19.366Z,0
2016-11-04T02:24:19.642Z,0
2016-11-04T02:25:19.627Z,0
2016-11-04T02:26:19.650Z,0
2016-11-04T02:27:19.601Z,0
2016-11-04T02:28:19.582Z,0
2016-11-04T02:29:19.560Z,0
2016-11-04T02:30:19.551Z,0
2016-11-04T02:31:19.535Z,0
2016-11-04T02:32:19.512Z,0
2016-11-04T02:33:19.505Z,0
2016-11-04T02:34:19.478Z,0
2016-11-04T02:35:19.166Z,0
2016-11-04T02:36:19.446Z,0
2016-11-04T02:37:19.434Z,0
2016-11-04T02:38:19.421Z,0
2016-11-04T02:39:19.409Z,0
2016-11-04T02:40:19.386Z,0
2016-11-04T02:41:19.367Z,0
2016-11-04T02:42:19.356Z,0
2016-11-04T02:43:19.332Z,0
2016-11-04T02:44:19.017Z,0
2016-11-04T02:45:19.299Z,0
2016-11-04T02:46:19.290Z,0
2016-11-04T02:47:19.269Z,0
2016-11-04T02:48:19.260Z,0
2016-11-04T02:49:19.236Z,0
2016-11-04T02:50:19.222Z,0
2016-11-04T02:51:19.202Z,0
2016-11-04T02:52:19.185Z,0
2016-11-04T02:53:19.182Z,0
2016-11-04T02:54:19.155Z,0
2016-11-04T02:55:19.146Z,0
2016-11-04T02:56:19.124Z,0
2016-11-04T02:57:19.127Z,0
2016-11-04T02:58:19.091Z,0
2016-11-04T02:59:19.086Z,0
2016-11-04T03:00:19.059Z,0
2016-11-04T03:01:19.060Z,0
2016-11-04T03:02:19.026Z,0
2016-11-04T03:03:19.025Z,0
2016-11-04T03:04:18.993Z,0
2016-11-04T03:05:18.969Z,0
2016-11-04T03:06:18.991Z,0
2016-11-04T03:07:18.940Z,0
2016-11-04T03:08:18.920Z,0
2016-11-04T03:09:18.612Z,0
2016-11-04T03:10:18.899Z,0
2016-11-04T03:11:18.879Z,0
2016-11-04T03:12:18.892Z,0
2016-11-04T03:13:18.883Z,0
2016-11-04T03:14:18.824Z,0
2016-11-04T03:15:18.816Z,0
2016-11-04T03:16:18.790Z,0
2016-11-04T03:17:18.772Z,0
2016-11-04T03:18:18.803Z,0
2016-11-04T03:19:18.745Z,0
2016-11-04T03:20:18.725Z,0
2016-11-04T03:21:18.447Z,0
2016-11-04T03:22:18.696Z,0
2016-11-04T03:23:18.685Z,0
2016-11-04T03:24:18.664Z,0
2016-11-04T03:25:18.645Z,0
2016-11-04T03:26:18.641Z,0
2016-11-04T03:27:18.612Z,0
2016-11-04T03:28:18.601Z,0
2016-11-04T03:29:18.581Z,0
2016-11-04T03:30:18.572Z,0
2016-11-04T03:31:18.245Z,0
2016-11-04T03:32:18.538Z,0
2016-11-04T03:33:18.517Z,0
2016-11-04T03:34:18.512Z,0
2016-11-04T03:35:18.488Z,0
2016-11-04T03:36:18.161Z,0
2016-11-04T03:37:18.452Z,0
2016-11-04T03:38:18.435Z,0
2016-11-04T03:39:18.422Z,0
2016-11-04T03:40:18.399Z,0
2016-11-04T03:41:18.391Z,0
2016-11-04T03:42:18.072Z,0
2016-11-04T03:43:18.355Z,0
2016-11-04T03:44:18.343Z,0
2016-11-04T03:45:18.320Z,0
2016-11-04T03:46:18.334Z,0
2016-11-04T03:47:18.290Z,0
2016-11-04T03:48:18.266Z,0
2016-11-04T03:49:18.255Z,0
2016-11-04T03:50:18.237Z,0
2016-11-04T03:51:18.221Z,0
2016-11-04T03:52:18.215Z,0
2016-11-04T03:53:18.183Z,0
2016-11-04T03:54:18.171Z,0
2016-11-04T03:55:17.853Z,0
2016-11-04T03:56:18.135Z,0
2016-11-04T03:57:18.127Z,0
2016-11-04T03:58:18.106Z,0
2016-11-04T03:59:18.083Z,0
2016-11-04T04:00:17.762Z,0
2016-11-04T04:01:18.053Z,0
2016-11-04T04:02:18.035Z,0
2016-11-04T04:03:18.020Z,0
2016-11-04T04:04:18.003Z,0
2016-11-04T04:05:17.683Z,0
2016-11-04T04:06:17.971Z,0
2016-11-04T04:07:17.955Z,0
2016-11-04T04:08:17.940Z,0
2016-11-04T04:09:17.919Z,0
2016-11-04T04:10:17.903Z,0
2016-11-04T04:11:17.918Z,0
2016-11-04T04:12:17.881Z,0
2016-11-04T04:13:17.857Z,0
2016-11-04T04:14:17.538Z,0
2016-11-04T04:15:17.827Z,0
2016-11-04T04:16:17.807Z,0
2016-11-04T04:17:17.792Z,0
2016-11-04T04:18:17.768Z,0
2016-11-04T04:19:17.754Z,0
2016-11-04T04:20:17.739Z,0
2016-11-04T04:21:17.724Z,0
2016-11-04T04:22:17.703Z,0
2016-11-04T04:23:17.689Z,0
2016-11-04T04:24:17.674Z,0
2016-11-04T04:25:17.657Z,0
2016-11-04T04:26:17.642Z,0
2016-11-04T04:27:17.621Z,0
2016-11-04T04:28:17.608Z,0
2016-11-04T04:29:17.600Z,0
2016-11-04T04:30:17.575Z,0
2016-11-04T04:31:17.560Z,0
2016-11-04T04:32:17.538Z,0
2016-11-04T04:33:17.523Z,0
2016-11-04T04:34:17.506Z,0
2016-11-04T04:35:17.509Z,0
2016-11-04T04:36:17.174Z,0
2016-11-04T04:37:17.486Z,0
2016-11-04T04:38:17.479Z,0
2016-11-04T04:39:17.458Z,0
2016-11-04T04:40:17.414Z,0
2016-11-04T04:41:17.396Z,0
2016-11-04T04:42:17.381Z,0
2016-11-04T04:43:17.385Z,0
2016-11-04T04:44:17.344Z,0
2016-11-04T04:45:17.343Z,0
2016-11-04T04:46:17.310Z,0
2016-11-04T04:47:17.309Z,0
2016-11-04T04:48:17.275Z,0
2016-11-04T04:49:17.268Z,0
2016-11-04T04:50:17.249Z,0
2016-11-04T04:51:17.224Z,0
2016-11-04T04:52:17.208Z,0
2016-11-04T04:53:17.191Z,0
2016-11-04T04:54:16.878Z,0
2016-11-04T04:55:17.167Z,0
2016-11-04T04:56:17.144Z,0
2016-11-04T04:57:17.129Z,0
2016-11-04T04:58:17.122Z,0
2016-11-04T04:59:16.805Z,0
2016-11-04T05:00:16.785Z,0
2016-11-04T05:01:17.066Z,0
2016-11-04T05:02:17.053Z,0
2016-11-04T05:03:17.067Z,0
2016-11-04T05:04:16.708Z,0
2016-11-04T05:05:16.999Z,0
2016-11-04T05:06:16.678Z,0
2016-11-04T05:07:16.661Z,0
2016-11-04T05:08:16.958Z,0
2016-11-04T05:09:16.934Z,0
2016-11-04T05:10:16.615Z,0
2016-11-04T05:11:16.900Z,0
2016-11-04T05:12:16.889Z,0
2016-11-04T05:13:16.868Z,0
2016-11-04T05:14:16.849Z,0
2016-11-04T05:15:16.835Z,0
2016-11-04T05:16:16.822Z,0
2016-11-04T05:17:16.805Z,0
2016-11-04T05:18:16.792Z,0
2016-11-04T05:19:16.779Z,0
2016-11-04T05:20:16.765Z,0
2016-11-04T05:21:16.732Z,0
2016-11-04T05:22:16.725Z,0
2016-11-04T05:23:16.702Z,0
2016-11-04T05:24:16.695Z,0
2016-11-04T05:25:16.370Z,0
2016-11-04T05:26:16.651Z,0
2016-11-04T05:27:16.641Z,0
2016-11-04T05:28:16.626Z,0
2016-11-04T05:29:16.607Z,0
2016-11-04T05:30:16.596Z,0
2016-11-04T05:31:16.274Z,0
2016-11-04T05:32:16.557Z,0
2016-11-04T05:33:16.540Z,0
2016-11-04T05:34:16.227Z,0
2016-11-04T05:35:16.514Z,0
2016-11-04T05:36:16.490Z,0
2016-11-04T05:37:16.490Z,0
2016-11-04T05:38:16.458Z,0
2016-11-04T05:39:16.143Z,0
2016-11-04T05:40:16.423Z,0
2016-11-04T05:41:16.412Z,0
2016-11-04T05:42:16.393Z,0
2016-11-04T05:43:16.376Z,0
2016-11-04T05:44:16.366Z,0
2016-11-04T05:45:16.346Z,0
2016-11-04T05:46:16.330Z,0
2016-11-04T05:47:16.313Z,0
2016-11-04T05:48:16.295Z,0
2016-11-04T05:49:15.977Z,0
2016-11-04T05:50:16.268Z,0
2016-11-04T05:51:16.249Z,0
2016-11-04T05:52:16.235Z,0
2016-11-04T05:53:15.912Z,0
2016-11-04T05:54:16.201Z,0
2016-11-04T05:55:16.182Z,0
2016-11-04T05:56:16.167Z,0
2016-11-04T05:57:16.156Z,0
2016-11-04T05:58:16.141Z,0
2016-11-04T05:59:15.515Z,0
2016-11-04T06:00:16.104Z,0
2016-11-04T06:01:16.086Z,0
2016-11-04T06:02:15.776Z,0
2016-11-04T06:03:16.057Z,0
2016-11-04T06:04:16.073Z,0
2016-11-04T06:05:16.028Z,0
2016-11-04T06:06:15.711Z,0
2016-11-04T06:07:15.990Z,0
2016-11-04T06:08:15.972Z,0
2016-11-04T06:09:15.961Z,0
2016-11-04T06:10:15.944Z,0
2016-11-04T06:11:15.927Z,0
2016-11-04T06:12:15.605Z,0
2016-11-04T06:13:15.892Z,0
2016-11-04T06:14:15.881Z,0
2016-11-04T06:15:15.868Z,0
2016-11-04T06:16:15.842Z,0
2016-11-04T06:17:15.831Z,0
2016-11-04T06:18:15.808Z,0
2016-11-04T06:19:15.497Z,0
2016-11-04T06:20:15.775Z,0
2016-11-04T06:21:15.782Z,0
2016-11-04T06:22:15.783Z,0
2016-11-04T06:23:15.729Z,0
2016-11-04T06:24:15.418Z,0
2016-11-04T06:25:15.402Z,0
2016-11-04T06:26:15.386Z,0
2016-11-04T06:27:15.665Z,0
2016-11-04T06:28:15.358Z,0
2016-11-04T06:29:15.338Z,0
2016-11-04T06:30:15.618Z,0
2016-11-04T06:31:15.305Z,0
2016-11-04T06:32:15.591Z,0
2016-11-04T06:33:15.588Z,0
2016-11-04T06:34:15.252Z,0
2016-11-04T06:35:15.545Z,0
2016-11-04T06:36:15.526Z,0
2016-11-04T06:37:15.511Z,0
2016-11-04T06:38:15.493Z,0
2016-11-04T06:39:15.480Z,0
2016-11-04T06:40:15.465Z,0
2016-11-04T06:41:15.154Z,0
2016-11-04T06:42:15.129Z,0
2016-11-04T06:43:15.281Z,0
2016-11-04T06:44:15.408Z,0
2016-11-04T06:45:15.075Z,0
2016-11-04T06:46:15.366Z,0
2016-11-04T06:47:15.355Z,0
2016-11-04T06:48:15.331Z,0
2016-11-04T06:49:15.339Z,0
2016-11-04T06:50:15.303Z,0
2016-11-04T06:51:15.294Z,0
2016-11-04T06:52:14.970Z,0
2016-11-04T06:53:15.260Z,0
2016-11-04T06:54:15.241Z,0
2016-11-04T06:55:14.929Z,0
2016-11-04T06:56:15.207Z,0
2016-11-04T06:57:14.892Z,0
2016-11-04T06:58:15.181Z,0
2016-11-04T06:59:14.856Z,0
2016-11-04T07:00:15.141Z,0
2016-11-04T07:01:15.133Z,0
2016-11-04T07:02:15.112Z,0
2016-11-04T07:03:14.807Z,0
2016-11-04T07:04:15.098Z,0
2016-11-04T07:05:14.763Z,0
2016-11-04T07:06:14.448Z,0
2016-11-04T07:07:15.028Z,0
2016-11-04T07:08:15.013Z,0
2016-11-04T07:09:15.012Z,0
2016-11-04T07:10:14.677Z,0
2016-11-04T07:11:14.676Z,0
2016-11-04T07:12:14.971Z,0
2016-11-04T07:13:14.645Z,0
2016-11-04T07:14:14.924Z,0
2016-11-04T07:15:14.916Z,0
2016-11-04T07:16:14.911Z,0
2016-11-04T07:17:14.576Z,0
2016-11-04T07:18:14.555Z,0
2016-11-04T07:19:14.543Z,0
2016-11-04T07:20:14.828Z,0
2016-11-04T07:21:14.811Z,0
2016-11-04T07:22:14.499Z,0
2016-11-04T07:23:14.774Z,0
2016-11-04T07:24:14.755Z,0
2016-11-04T07:25:14.445Z,0
2016-11-04T07:26:14.725Z,0
2016-11-04T07:27:14.415Z,0
2016-11-04T07:28:14.703Z,0
2016-11-04T07:29:14.684Z,0
2016-11-04T07:30:14.672Z,0
2016-11-04T07:31:14.659Z,0
2016-11-04T07:32:14.356Z,0
2016-11-04T07:33:14.620Z,0
2016-11-04T07:34:14.598Z,0
2016-11-04T07:35:14.284Z,4
2016-11-04T07:36:14.276Z,4
2016-11-04T07:37:14.248Z,0
2016-11-04T07:38:14.537Z,4
2016-11-04T07:39:14.526Z,4
2016-11-04T07:40:14.505Z,4
2016-11-04T07:41:14.488Z,8
2016-11-04T07:42:14.479Z,4
2016-11-04T07:43:14.454Z,8
2016-11-04T07:44:14.444Z,8
2016-11-04T07:45:14.141Z,12
2016-11-04T07:46:14.410Z,12
2016-11-04T07:47:14.398Z,16
2016-11-04T07:48:14.090Z,16
2016-11-04T07:49:14.378Z,16
2016-11-04T07:50:14.055Z,20
2016-11-04T07:51:14.326Z,24
2016-11-04T07:52:14.316Z,24
2016-11-04T07:53:14.303Z,24
2016-11-04T07:54:14.290Z,24
2016-11-04T07:55:14.275Z,24
2016-11-04T07:56:13.958Z,24
2016-11-04T07:57:14.243Z,24
2016-11-04T07:58:14.218Z,24
2016-11-04T07:59:14.204Z,28
2016-11-04T08:00:14.189Z,24
2016-11-04T08:01:14.172Z,24
2016-11-04T08:02:13.858Z,24
2016-11-04T08:03:14.139Z,24
2016-11-04T08:04:13.828Z,24
2016-11-04T08:05:14.117Z,24
2016-11-04T08:06:14.090Z,24
2016-11-04T08:07:13.786Z,28
2016-11-04T08:08:13.755Z,28
2016-11-04T08:09:14.040Z,28
2016-11-04T08:10:14.027Z,28
2016-11-04T08:11:14.005Z,24
2016-11-04T08:12:13.706Z,24
2016-11-04T08:13:13.981Z,28
2016-11-04T08:14:13.962Z,28
2016-11-04T08:15:13.945Z,28
2016-11-04T08:16:13.940Z,28
2016-11-04T08:17:13.906Z,28
2016-11-04T08:18:13.897Z,24
2016-11-04T08:19:13.581Z,28
2016-11-04T08:20:13.560Z,28
2016-11-04T08:21:13.547Z,28
2016-11-04T08:22:12.928Z,28
2016-11-04T08:23:13.520Z,28
2016-11-04T08:24:13.507Z,28
2016-11-04T08:25:13.186Z,28
2016-11-04T08:26:13.471Z,28
2016-11-04T08:27:13.752Z,28
2016-11-04T08:28:13.437Z,24
2016-11-04T08:29:13.427Z,24
2016-11-04T08:30:13.429Z,28
2016-11-04T08:31:13.687Z,24
2016-11-04T08:32:13.368Z,28
2016-11-04T08:33:13.702Z,28
2016-11-04T08:34:13.044Z,28
2016-11-04T08:35:13.628Z,28
2016-11-04T08:36:13.607Z,28
2016-11-04T08:37:13.590Z,28
2016-11-04T08:38:13.274Z,28
2016-11-04T08:39:13.559Z,28
2016-11-04T08:40:13.583Z,28
2016-11-04T08:41:13.233Z,28
2016-11-04T08:42:13.218Z,28
2016-11-04T08:43:13.196Z,28
2016-11-04T08:44:13.482Z,28
2016-11-04T08:45:13.464Z,28
2016-11-04T08:46:13.149Z,28
2016-11-04T08:47:13.134Z,28
2016-11-04T08:48:13.115Z,24
2016-11-04T08:49:12.799Z,28
2016-11-04T08:50:13.386Z,28
2016-11-04T08:51:13.072Z,24
2016-11-04T08:52:13.356Z,24
2016-11-04T08:53:13.047Z,24
2016-11-04T08:54:13.323Z,28
2016-11-04T08:55:13.304Z,28
2016-11-04T08:56:13.311Z,28
2016-11-04T08:57:12.978Z,28
2016-11-04T08:58:13.259Z,28
2016-11-04T08:59:13.243Z,32
2016-11-04T09:00:13.232Z,28
2016-11-04T09:01:12.911Z,28
2016-11-04T09:02:12.894Z,28
2016-11-04T09:03:13.182Z,28
2016-11-04T09:04:13.170Z,28
2016-11-04T09:05:13.150Z,28
2016-11-04T09:06:12.831Z,32
2016-11-04T09:07:13.122Z,32
2016-11-04T09:08:13.108Z,28
2016-11-04T09:09:13.089Z,28
2016-11-04T09:10:13.073Z,32
2016-11-04T09:11:13.051Z,28
2016-11-04T09:12:13.043Z,28
2016-11-04T09:13:13.024Z,28
2016-11-04T09:14:13.021Z,28
2016-11-04T09:15:12.990Z,28
2016-11-04T09:16:12.682Z,28
2016-11-04T09:17:12.961Z,28
2016-11-04T09:18:12.956Z,28
2016-11-04T09:19:12.627Z,28
2016-11-04T09:20:12.914Z,28
2016-11-04T09:21:12.947Z,28
2016-11-04T09:22:12.583Z,28
2016-11-04T09:23:12.568Z,28
2016-11-04T09:24:12.868Z,28
2016-11-04T09:25:12.545Z,24
2016-11-04T09:26:12.831Z,28
2016-11-04T09:27:12.802Z,28
2016-11-04T09:28:12.520Z,32
2016-11-04T09:29:12.471Z,28
2016-11-04T09:30:12.763Z,32
2016-11-04T09:31:12.743Z,32
2016-11-04T09:32:12.720Z,28
2016-11-04T09:33:12.407Z,32
2016-11-04T09:34:12.703Z,32
2016-11-04T09:35:12.678Z,32
2016-11-04T09:36:12.661Z,36
2016-11-04T09:37:12.358Z,36
2016-11-04T09:38:12.631Z,32
2016-11-04T09:39:12.610Z,16
2016-11-04T09:40:12.605Z,16
2016-11-04T09:41:12.584Z,16
2016-11-04T09:42:12.565Z,16
2016-11-04T09:43:11.953Z,16
2016-11-04T09:44:12.534Z,16
2016-11-04T09:45:12.225Z,16
2016-11-04T09:46:12.541Z,16
2016-11-04T09:47:12.488Z,16
2016-11-04T09:48:12.169Z,16
2016-11-04T09:49:12.456Z,16
2016-11-04T09:50:12.439Z,16
2016-11-04T09:51:12.424Z,20
2016-11-04T09:52:12.114Z,20
2016-11-04T09:53:12.395Z,20
2016-11-04T09:54:12.078Z,20
2016-11-04T09:55:12.373Z,20
2016-11-04T09:56:12.346Z,20
2016-11-04T09:57:12.371Z,28
2016-11-04T09:58:12.317Z,28
2016-11-04T09:59:11.701Z,24
2016-11-04T10:00:12.013Z,24
2016-11-04T10:01:12.276Z,24
2016-11-04T10:02:11.957Z,24
2016-11-04T10:03:11.932Z,28
2016-11-04T10:04:12.219Z,28
2016-11-04T10:05:12.211Z,32
2016-11-04T10:06:12.186Z,32
2016-11-04T10:07:12.205Z,32
2016-11-04T10:08:11.858Z,32
2016-11-04T10:09:12.152Z,36
2016-11-04T10:10:11.565Z,40
2016-11-04T10:11:11.810Z,36
2016-11-04T10:12:12.101Z,32
2016-11-04T10:13:11.477Z,28
2016-11-04T10:14:11.768Z,28
2016-11-04T10:15:12.052Z,32
2016-11-04T10:16:12.043Z,28
2016-11-04T10:17:11.718Z,24
2016-11-04T10:18:11.700Z,28
2016-11-04T10:19:11.992Z,28
2016-11-04T10:20:11.669Z,28
2016-11-04T10:21:11.660Z,28
2016-11-04T10:22:11.940Z,28
2016-11-04T10:23:11.974Z,24
2016-11-04T10:24:11.909Z,24
2016-11-04T10:25:11.886Z,24
2016-11-04T10:26:11.927Z,24
2016-11-04T10:27:11.872Z,28
2016-11-04T10:28:11.844Z,28
2016-11-04T10:29:11.829Z,32
2016-11-04T10:30:11.862Z,40
2016-11-04T10:31:11.200Z,36
2016-11-04T10:32:11.782Z,44
2016-11-04T10:33:11.467Z,40
2016-11-04T10:34:11.453Z,44
2016-11-04T10:35:11.441Z,44
2016-11-04T10:36:11.732Z,44
2016-11-04T10:37:11.743Z,44
2016-11-04T10:38:11.686Z,44
2016-11-04T10:39:11.683Z,44
2016-11-04T10:40:11.356Z,44
2016-11-04T10:41:11.647Z,44
2016-11-04T10:42:11.324Z,40
2016-11-04T10:43:11.616Z,36
2016-11-04T10:44:11.597Z,36
2016-11-04T10:45:11.582Z,32
2016-11-04T10:46:11.605Z,32
2016-11-04T10:47:11.548Z,32
2016-11-04T10:48:11.526Z,32
2016-11-04T10:49:11.521Z,32
2016-11-04T10:50:11.544Z,36
2016-11-04T10:51:11.484Z,32
2016-11-04T10:52:11.160Z,32
2016-11-04T10:53:10.854Z,32
2016-11-04T10:54:11.137Z,36
2016-11-04T10:55:11.434Z,36
2016-11-04T10:56:10.809Z,36
2016-11-04T10:57:11.395Z,40
2016-11-04T10:58:11.073Z,40
2016-11-04T10:59:11.369Z,40
2016-11-04T11:00:11.058Z,40
2016-11-04T11:01:10.723Z,40
2016-11-04T11:02:11.013Z,40
2016-11-04T11:03:11.306Z,40
2016-11-04T11:04:11.285Z,40
2016-11-04T11:05:11.264Z,40
2016-11-04T11:06:11.250Z,40
2016-11-04T11:07:11.241Z,40
2016-11-04T11:08:11.210Z,44
2016-11-04T11:09:11.201Z,44
2016-11-04T11:10:11.189Z,40
2016-11-04T11:11:10.883Z,40
2016-11-04T11:12:10.853Z,40
2016-11-04T11:13:11.134Z,40
2016-11-04T11:14:10.821Z,40
2016-11-04T11:15:11.107Z,36
2016-11-04T11:16:11.092Z,36
2016-11-04T11:17:11.073Z,40
2016-11-04T11:18:11.310Z,36
2016-11-04T11:19:11.049Z,40
2016-11-04T11:20:10.421Z,36
2016-11-04T11:21:11.014Z,32
2016-11-04T11:22:11.006Z,36
2016-11-04T11:23:10.989Z,32
2016-11-04T11:24:10.967Z,36
2016-11-04T11:25:10.949Z,36
2016-11-04T11:26:10.969Z,32
2016-11-04T11:27:10.624Z,32
2016-11-04T11:28:10.943Z,28
2016-11-04T11:29:10.893Z,32
2016-11-04T11:30:10.872Z,32
2016-11-04T11:31:10.900Z,36
2016-11-04T11:32:10.853Z,40
2016-11-04T11:33:10.824Z,36
2016-11-04T11:34:10.507Z,44
2016-11-04T11:35:10.493Z,44
2016-11-04T11:36:10.775Z,44
2016-11-04T11:37:10.763Z,44
2016-11-04T11:38:10.746Z,40
2016-11-04T11:39:10.429Z,40
2016-11-04T11:40:10.716Z,40
2016-11-04T11:41:10.703Z,40
2016-11-04T11:42:10.385Z,36
2016-11-04T11:43:10.674Z,36
2016-11-04T11:44:10.648Z,32
2016-11-04T11:45:10.637Z,32
2016-11-04T11:46:10.630Z,36
2016-11-04T11:47:10.004Z,24
2016-11-04T11:48:10.593Z,16
2016-11-04T11:49:10.285Z,20
2016-11-04T11:50:09.963Z,16
2016-11-04T11:51:10.545Z,16
2016-11-04T11:52:10.535Z,16
2016-11-04T11:53:10.215Z,16
2016-11-04T11:54:10.503Z,16
2016-11-04T11:55:09.892Z,16
2016-11-04T11:56:10.166Z,16
2016-11-04T11:57:10.463Z,16
2016-11-04T11:58:10.140Z,16
2016-11-04T11:59:10.427Z,16
2016-11-04T12:00:10.142Z,16
2016-11-04T12:01:10.408Z,16
2016-11-04T12:02:10.084Z,16
2016-11-04T12:03:09.775Z,16
2016-11-04T12:04:10.114Z,16
2016-11-04T12:05:10.348Z,16
2016-11-04T12:06:10.331Z,16
2016-11-04T12:07:10.310Z,16
2016-11-04T12:08:09.687Z,16
2016-11-04T12:09:10.300Z,16
2016-11-04T12:10:10.279Z,16
2016-11-04T12:11:09.954Z,16
2016-11-04T12:12:09.621Z,16
2016-11-04T12:13:10.209Z,16
2016-11-04T12:14:10.203Z,16
2016-11-04T12:15:09.900Z,16
2016-11-04T12:16:09.875Z,16
2016-11-04T12:17:10.171Z,16
2016-11-04T12:18:09.546Z,20
2016-11-04T12:19:09.823Z,20
2016-11-04T12:20:10.113Z,24
2016-11-04T12:21:09.779Z,24
2016-11-04T12:22:10.086Z,24
2016-11-04T12:23:10.118Z,20
2016-11-04T12:24:10.051Z,20
2016-11-04T12:25:09.420Z,24
2016-11-04T12:26:10.037Z,28
2016-11-04T12:27:10.008Z,28
2016-11-04T12:28:09.715Z,32
2016-11-04T12:29:09.681Z,32
2016-11-04T12:30:09.982Z,32
2016-11-04T12:31:09.643Z,32
2016-11-04T12:32:09.641Z,40
2016-11-04T12:33:09.618Z,28
2016-11-04T12:34:09.896Z,32
2016-11-04T12:35:09.577Z,28
2016-11-04T12:36:09.884Z,32
2016-11-04T12:37:09.860Z,32
2016-11-04T12:38:09.521Z,32
2016-11-04T12:39:09.813Z,32
2016-11-04T12:40:09.819Z,32
2016-11-04T12:41:09.464Z,32
2016-11-04T12:42:09.473Z,28
2016-11-04T12:43:09.470Z,24
2016-11-04T12:44:09.747Z,20
2016-11-04T12:45:09.744Z,20
2016-11-04T12:46:09.391Z,20
2016-11-04T12:47:09.390Z,20
2016-11-04T12:48:09.080Z,24
2016-11-04T12:49:09.374Z,20
2016-11-04T12:50:09.372Z,20
2016-11-04T12:51:09.343Z,16
2016-11-04T12:52:09.313Z,16
2016-11-04T12:53:09.606Z,16
2016-11-04T12:54:09.585Z,16
2016-11-04T12:55:09.260Z,16
2016-11-04T12:56:09.564Z,16
2016-11-04T12:57:09.573Z,16
2016-11-04T12:58:09.228Z,16
2016-11-04T12:59:09.199Z,16
2016-11-04T13:00:09.479Z,16
2016-11-04T13:01:09.464Z,12
2016-11-04T13:02:09.480Z,28
2016-11-04T13:03:09.138Z,28
2016-11-04T13:04:09.114Z,28
2016-11-04T13:05:09.412Z,32
2016-11-04T13:06:09.098Z,32
2016-11-04T13:07:09.383Z,36
2016-11-04T13:08:09.060Z,36
2016-11-04T13:09:09.042Z,36
2016-11-04T13:10:09.321Z,36
2016-11-04T13:11:09.314Z,40
2016-11-04T13:12:09.332Z,36
2016-11-04T13:13:09.285Z,36
2016-11-04T13:14:09.270Z,40
2016-11-04T13:15:09.255Z,40
2016-11-04T13:16:09.239Z,40
2016-11-04T13:17:09.224Z,40
2016-11-04T13:18:09.207Z,40
2016-11-04T13:19:09.196Z,40
2016-11-04T13:20:09.168Z,40
2016-11-04T13:21:09.173Z,36
2016-11-04T13:22:09.136Z,32
2016-11-04T13:23:09.132Z,40
2016-11-04T13:24:08.806Z,36
2016-11-04T13:25:09.098Z,40
2016-11-04T13:26:08.771Z,36
2016-11-04T13:27:09.077Z,36
2016-11-04T13:28:08.757Z,32
2016-11-04T13:29:08.726Z,36
2016-11-04T13:30:09.032Z,36
2016-11-04T13:31:08.999Z,36
2016-11-04T13:32:08.688Z,36
2016-11-04T13:33:08.990Z,36
2016-11-04T13:34:09.020Z,32
2016-11-04T13:35:08.684Z,36
2016-11-04T13:36:08.924Z,36
2016-11-04T13:37:08.912Z,32
2016-11-04T13:38:08.602Z,32
2016-11-04T13:39:08.879Z,28
2016-11-04T13:40:08.863Z,32
2016-11-04T13:41:08.855Z,32
2016-11-04T13:42:08.539Z,28
2016-11-04T13:43:08.815Z,28
2016-11-04T13:44:08.801Z,32
2016-11-04T13:45:08.778Z,28
2016-11-04T13:46:08.469Z,28
2016-11-04T13:47:08.458Z,32
2016-11-04T13:48:08.436Z,32
2016-11-04T13:49:08.731Z,32
2016-11-04T13:50:08.702Z,36
2016-11-04T13:51:08.384Z,32
2016-11-04T13:52:08.674Z,32
2016-11-04T13:53:08.662Z,28
2016-11-04T13:54:08.343Z,24
2016-11-04T13:55:08.627Z,28
2016-11-04T13:56:08.627Z,24
2016-11-04T13:57:08.598Z,28
2016-11-04T13:58:08.617Z,28
2016-11-04T13:59:08.569Z,32
2016-11-04T14:00:07.991Z,28
2016-11-04T14:01:08.579Z,36
2016-11-04T14:02:07.953Z,40
2016-11-04T14:03:08.509Z,32
2016-11-04T14:04:08.538Z,32
2016-11-04T14:05:08.172Z,32
2016-11-04T14:06:08.459Z,24
2016-11-04T14:07:08.146Z,24
2016-11-04T14:08:08.425Z,28
2016-11-04T14:09:08.115Z,28
2016-11-04T14:10:08.398Z,32
2016-11-04T14:11:07.484Z,40
2016-11-04T14:12:08.363Z,44
2016-11-04T14:13:08.052Z,44
2016-11-04T14:14:08.079Z,40
2016-11-04T14:15:08.310Z,36
2016-11-04T14:16:08.314Z,32
2016-11-04T14:17:08.755Z,20
2016-11-04T14:18:08.262Z,20
2016-11-04T14:19:07.966Z,20
2016-11-04T14:20:07.951Z,20
2016-11-04T14:21:08.250Z,20
2016-11-04T14:22:08.201Z,20
2016-11-04T14:23:08.194Z,20
2016-11-04T14:24:07.892Z,20
2016-11-04T14:25:07.859Z,16
2016-11-04T14:26:08.154Z,16
2016-11-04T14:27:08.145Z,16
2016-11-04T14:28:07.816Z,20
2016-11-04T14:29:07.875Z,20
2016-11-04T14:30:08.078Z,12
2016-11-04T14:31:08.068Z,12
2016-11-04T14:32:08.089Z,12
2016-11-04T14:33:07.743Z,12
2016-11-04T14:34:07.741Z,12
2016-11-04T14:35:08.002Z,8
2016-11-04T14:36:07.986Z,8